createdAt,value
2023-04-29T00:01:06.459Z,101174.91
2023-04-29T00:03:39.248Z,101183.75
2023-04-29T00:06:21.533Z,101179.41
2023-04-29T00:08:54.275Z,101180.66
2023-04-29T00:11:26.929Z,101181.91
2023-04-29T00:13:59.832Z,101181.59
2023-04-29T00:16:51.726Z,101183.63
2023-04-29T00:19:24.476Z,101184.09
2023-04-29T00:21:57.076Z,101190.44
2023-04-29T00:24:29.929Z,101190.91
2023-04-29T00:27:02.890Z,101204.91
2023-04-29T00:29:44.493Z,101196.19
2023-04-29T00:32:16.977Z,101201.03
2023-04-29T00:34:49.660Z,101207.09
2023-04-29T00:37:37.333Z,101208.34
2023-04-29T00:40:15.097Z,101206.78
2023-04-29T00:42:47.724Z,101203.22
2023-04-29T00:45:24.200Z,101208.03
2023-04-29T00:48:06.188Z,101201.69
2023-04-29T00:50:48.074Z,101206.97
2023-04-29T00:53:31.512Z,101206.16
2023-04-29T00:56:08.756Z,101219.69
2023-04-29T00:58:46.011Z,101217.84
2023-04-29T01:01:22.520Z,101219.84
2023-04-29T01:04:13.004Z,101221.88
2023-04-29T01:07:31.202Z,101222.38
2023-04-29T01:10:34.639Z,101227.97
2023-04-29T01:13:14.306Z,101226.38
2023-04-29T01:16:13.237Z,101225.63
2023-04-29T01:18:57.669Z,101227.66
2023-04-29T01:21:33.074Z,101233.69
2023-04-29T01:24:11.495Z,101234.16
2023-04-29T01:30:16.712Z,101242.56
2023-04-29T01:33:22.216Z,101246.59
2023-04-29T01:36:08.799Z,101251.41
2023-04-29T01:39:15.241Z,101250.63
2023-04-29T01:42:11.465Z,101247.53
2023-04-29T01:44:49.423Z,101253.13
2023-04-29T01:47:22.204Z,101251.59
2023-04-29T01:49:55.235Z,101251.59
2023-04-29T01:52:28.763Z,101250.81
2023-04-29T01:55:21.842Z,101257.63
2023-04-29T01:58:03.248Z,101258.41
2023-04-29T02:00:36.007Z,101259.66
2023-04-29T02:03:18.106Z,101264.47
2023-04-29T02:05:50.963Z,101257.31
2023-04-29T02:08:42.450Z,101262.16
2023-04-29T02:11:15.177Z,101265.41
2023-04-29T02:13:48.795Z,101271.00
2023-04-29T02:16:24.469Z,101270.22
2023-04-29T02:19:15.585Z,101274.28
2023-04-29T02:21:48.196Z,101277.06
2023-04-29T02:24:21.111Z,101278.28
2023-04-29T02:27:07.019Z,101276.75
2023-04-29T02:29:43.070Z,101287.94
2023-04-29T02:32:15.987Z,101295.53
2023-04-29T02:34:49.520Z,101290.44
2023-04-29T02:37:22.120Z,101284.84
2023-04-29T02:39:55.037Z,101294.44
2023-04-29T02:42:45.946Z,101290.88
2023-04-29T02:45:27.148Z,101298.50
2023-04-29T02:48:08.515Z,101308.09
2023-04-29T02:50:41.090Z,101308.09
2023-04-29T02:54:29.074Z,101310.59
2023-04-29T02:57:02.935Z,101322.56
2023-04-29T02:59:47.708Z,101319.47
2023-04-29T03:02:38.682Z,101317.13
2023-04-29T03:07:58.161Z,101327.53
2023-04-29T03:10:43.265Z,101330.78
2023-04-29T03:13:27.855Z,101326.47
2023-04-29T03:16:01.576Z,101328.44
2023-04-29T03:18:49.813Z,101326.16
2023-04-29T03:21:28.669Z,101326.16
2023-04-29T03:24:15.335Z,101337.31
2023-04-29T03:26:52.488Z,101334.22
2023-04-29T03:29:31.905Z,101334.22
2023-04-29T03:32:19.750Z,101344.59
2023-04-29T03:35:07.427Z,101339.50
2023-04-29T03:37:40.106Z,101347.88
2023-04-29T03:40:13.565Z,101339.19
2023-04-29T03:42:49.124Z,101350.34
2023-04-29T03:45:31.075Z,101348.78
2023-04-29T03:48:12.734Z,101347.25
2023-04-29T03:50:45.533Z,101353.59
2023-04-29T03:53:22.071Z,101358.44
2023-04-29T03:56:04.002Z,101356.84
2023-04-29T03:58:36.733Z,101350.50
2023-04-29T04:01:09.273Z,101358.09
2023-04-29T04:04:00.465Z,101359.34
2023-04-29T04:06:33.126Z,101358.56
2023-04-29T04:09:11.274Z,101360.59
2023-04-29T04:11:44.355Z,101361.81
2023-04-29T04:14:16.991Z,101365.88
2023-04-29T04:16:50.692Z,101371.44
2023-04-29T04:19:23.156Z,101369.91
2023-04-29T04:21:55.956Z,101377.50
2023-04-29T04:24:31.377Z,101372.38
2023-04-29T04:27:22.120Z,101380.28
2023-04-29T04:29:55.269Z,101376.72
2023-04-29T04:32:31.171Z,101379.50
2023-04-29T04:35:03.997Z,101383.56
2023-04-29T04:37:36.577Z,101384.34
2023-04-29T04:40:12.113Z,101390.38
2023-04-29T04:42:44.634Z,101387.56
2023-04-29T04:45:17.673Z,101397.22
2023-04-29T04:47:50.413Z,101397.22
2023-04-29T04:50:23.112Z,101402.81
2023-04-29T04:52:57.561Z,101406.03
2023-04-29T04:55:33.652Z,101422.81
2023-04-29T04:58:15.132Z,101423.56
2023-04-29T05:00:51.834Z,101433.53
2023-04-29T05:03:24.970Z,101434.75
2023-04-29T05:06:14.828Z,101428.41
2023-04-29T05:08:58.796Z,101433.22
2023-04-29T05:11:31.322Z,101436.00
2023-04-29T05:14:03.942Z,101439.56
2023-04-29T05:16:38.235Z,101445.16
2023-04-29T05:19:25.632Z,101450.75
2023-04-29T05:22:01.370Z,101444.38
2023-04-29T05:24:34.027Z,101448.88
2023-04-29T05:30:04.753Z,101459.56
2023-04-29T05:32:37.351Z,101462.38
2023-04-29T05:35:10.031Z,101463.63
2023-04-29T05:37:57.946Z,101438.72
2023-04-29T05:41:22.064Z,101468.44
2023-04-29T05:44:03.465Z,101467.63
2023-04-29T05:46:51.982Z,101472.44
2023-04-29T05:49:24.623Z,101476.00
2023-04-29T05:51:57.195Z,101488.44
2023-04-29T05:54:48.029Z,101478.50
2023-04-29T05:57:38.592Z,101486.88
2023-04-29T06:00:29.701Z,101495.25
2023-04-29T06:03:02.418Z,101498.03
2023-04-29T06:05:35.462Z,101501.94
2023-04-29T06:08:08.823Z,101504.25
2023-04-29T06:10:41.603Z,101503.38
2023-04-29T06:13:14.305Z,101505.22
2023-04-29T06:15:46.972Z,101512.66
2023-04-29T06:18:20.881Z,101508.97
2023-04-29T06:20:53.438Z,101516.41
2023-04-29T06:23:38.000Z,101519.84
2023-04-29T06:29:00.176Z,101525.47
2023-04-29T06:31:32.998Z,101529.69
2023-04-29T06:34:05.773Z,101535.13
2023-04-29T06:36:56.727Z,101527.34
2023-04-29T06:42:30.049Z,101548.50
2023-04-29T06:45:02.752Z,101546.34
2023-04-29T06:47:56.058Z,101549.75
2023-04-29T06:50:28.786Z,101555.97
2023-04-29T06:53:21.302Z,101556.59
2023-04-29T06:55:56.896Z,101563.59
2023-04-29T06:58:48.792Z,101565.03
2023-04-29T07:01:21.693Z,101565.66
2023-04-29T07:04:08.672Z,101573.44
2023-04-29T07:06:41.493Z,101578.88
2023-04-29T07:09:15.044Z,101580.28
2023-04-29T07:12:04.246Z,101589.59
2023-04-29T07:14:42.228Z,101591.81
2023-04-29T07:17:15.113Z,101603.59
2023-04-29T07:19:47.839Z,101598.94
2023-04-29T07:22:30.566Z,101602.38
2023-04-29T07:25:04.497Z,101603.00
2023-04-29T07:27:37.730Z,101603.63
2023-04-29T07:30:10.490Z,101605.00
2023-04-29T07:32:58.308Z,101613.25
2023-04-29T07:35:30.994Z,101610.28
2023-04-29T07:38:04.562Z,101611.38
2023-04-29T07:40:37.056Z,101612.47
2023-04-29T07:43:09.812Z,101616.34
2023-04-29T07:45:47.961Z,101625.06
2023-04-29T07:48:21.469Z,101624.13
2023-04-29T07:50:54.744Z,101621.63
2023-04-29T07:53:29.710Z,101620.41
2023-04-29T07:56:20.202Z,101629.06
2023-04-29T07:58:55.841Z,101631.88
2023-04-29T08:01:28.618Z,101633.91
2023-04-29T08:04:26.609Z,101640.28
2023-04-29T08:06:59.464Z,101639.50
2023-04-29T08:09:32.079Z,101652.75
2023-04-29T08:12:05.629Z,101642.00
2023-04-29T08:14:38.274Z,101651.19
2023-04-29T08:17:13.679Z,101650.41
2023-04-29T08:19:46.110Z,101647.59
2023-04-29T08:22:18.600Z,101648.84
2023-04-29T08:25:07.081Z,101660.84
2023-04-29T08:27:39.859Z,101651.19
2023-04-29T08:30:18.667Z,101654.78
2023-04-29T08:33:00.583Z,101654.00
2023-04-29T08:35:33.130Z,101656.81
2023-04-29T08:38:06.908Z,101654.00
2023-04-29T08:40:45.697Z,101658.34
2023-04-29T08:43:19.140Z,101659.13
2023-04-29T08:45:53.088Z,101655.09
2023-04-29T08:48:44.194Z,101664.25
2023-04-29T08:51:18.001Z,101660.69
2023-04-29T08:53:50.683Z,101661.47
2023-04-29T08:56:23.204Z,101661.47
2023-04-29T08:58:59.508Z,101660.69
2023-04-29T09:01:33.110Z,101663.94
2023-04-29T09:04:29.968Z,101662.41
2023-04-29T09:07:04.350Z,101662.41
2023-04-29T09:09:37.930Z,101673.59
2023-04-29T09:12:19.885Z,101679.97
2023-04-29T09:14:52.505Z,101679.97
2023-04-29T09:17:42.176Z,101684.81
2023-04-29T09:20:23.856Z,101679.19
2023-04-29T09:23:04.153Z,101684.50
2023-04-29T09:25:37.227Z,101687.28
2023-04-29T09:28:17.051Z,101686.50
2023-04-29T09:30:50.775Z,101680.13
2023-04-29T09:33:23.690Z,101686.19
2023-04-29T09:36:00.994Z,101682.59
2023-04-29T09:38:55.247Z,101684.63
2023-04-29T09:41:28.089Z,101688.22
2023-04-29T09:44:23.820Z,101685.09
2023-04-29T09:47:06.468Z,101683.06
2023-04-29T09:49:52.674Z,101685.88
2023-04-29T09:52:41.815Z,101685.09
2023-04-29T09:55:15.887Z,101698.63
2023-04-29T09:58:28.268Z,101697.88
2023-04-29T10:01:13.566Z,101699.88
2023-04-29T10:03:48.443Z,101705.00
2023-04-29T10:06:30.980Z,101705.00
2023-04-29T10:09:03.686Z,101709.84
2023-04-29T10:11:36.866Z,101707.50
2023-04-29T10:14:33.671Z,101712.31
2023-04-29T10:17:16.318Z,101716.38
2023-04-29T10:20:33.509Z,101724.28
2023-04-29T10:23:20.301Z,101716.66
2023-04-29T10:26:01.054Z,101723.53
2023-04-29T10:28:47.854Z,101717.16
2023-04-29T10:31:22.686Z,101718.69
2023-04-29T10:33:57.969Z,101717.16
2023-04-29T10:36:32.348Z,101717.16
2023-04-29T10:39:11.264Z,101718.69
2023-04-29T10:42:37.283Z,101717.16
2023-04-29T10:45:37.672Z,101721.19
2023-04-29T10:48:16.606Z,101729.56
2023-04-29T10:50:49.201Z,101724.47
2023-04-29T10:53:23.638Z,101727.72
2023-04-29T10:56:04.517Z,101724.16
2023-04-29T10:58:46.881Z,101724.91
2023-04-29T11:01:43.365Z,101734.09
2023-04-29T11:04:17.421Z,101721.34
2023-04-29T11:07:15.744Z,101724.16
2023-04-29T11:09:51.253Z,101728.63
2023-04-29T11:12:23.837Z,101732.69
2023-04-29T11:15:11.868Z,101731.16
2023-04-29T11:17:53.040Z,101740.78
2023-04-29T11:20:45.234Z,101729.56
2023-04-29T11:23:18.202Z,101736.75
2023-04-29T11:25:50.829Z,101732.69
2023-04-29T11:28:27.071Z,101735.81
2023-04-29T11:31:00.540Z,101730.22
2023-04-29T11:33:33.930Z,101730.22
2023-04-29T11:36:06.687Z,101731.44
2023-04-29T11:39:00.039Z,101725.53
2023-04-29T11:41:35.819Z,101730.84
2023-04-29T11:44:11.120Z,101732.06
2023-04-29T11:46:47.808Z,101735.16
2023-04-29T11:49:20.598Z,101738.75
2023-04-29T11:51:55.025Z,101737.97
2023-04-29T11:54:42.867Z,101740.78
2023-04-29T11:57:17.825Z,101744.34
2023-04-29T12:00:01.004Z,101739.22
2023-04-29T12:02:35.487Z,101745.59
2023-04-29T12:05:08.937Z,101748.84
2023-04-29T12:07:44.489Z,101744.03
2023-04-29T12:10:21.401Z,101742.03
2023-04-29T12:12:54.282Z,101737.97
2023-04-29T12:15:27.137Z,101742.03
2023-04-29T12:18:06.087Z,101740.78
2023-04-29T12:20:56.043Z,101747.13
2023-04-29T12:23:29.773Z,101747.94
2023-04-29T12:26:13.229Z,101745.44
2023-04-29T12:31:37.093Z,101740.16
2023-04-29T12:34:10.273Z,101742.94
2023-04-29T12:39:33.559Z,101751.34
2023-04-29T12:42:06.246Z,101748.53
2023-04-29T12:44:38.943Z,101747.78
2023-04-29T12:47:13.774Z,101741.41
2023-04-29T12:50:01.866Z,101751.03
2023-04-29T12:52:36.959Z,101751.03
2023-04-29T12:55:24.779Z,101752.59
2023-04-29T12:57:58.585Z,101751.34
2023-04-29T13:00:34.989Z,101754.94
2023-04-29T13:03:07.958Z,101758.97
2023-04-29T13:05:40.946Z,101759.75
2023-04-29T13:08:13.601Z,101759.75
2023-04-29T13:10:53.625Z,101760.06
2023-04-29T13:13:27.579Z,101756.03
2023-04-29T13:16:00.505Z,101754.00
2023-04-29T13:18:39.194Z,101750.13
2023-04-29T13:21:11.841Z,101754.16
2023-04-29T13:23:44.329Z,101754.16
2023-04-29T13:26:18.426Z,101750.13
2023-04-29T13:28:57.270Z,101750.13
2023-04-29T13:31:30.026Z,101758.53
2023-04-29T13:34:02.590Z,101753.69
2023-04-29T13:36:35.137Z,101753.22
2023-04-29T13:39:07.627Z,101756.34
2023-04-29T13:44:34.254Z,101753.22
2023-04-29T13:47:12.385Z,101752.47
2023-04-29T13:50:16.845Z,101751.97
2023-04-29T14:03:09.937Z,101759.78
2023-04-29T14:08:29.275Z,101759.78
2023-04-29T14:11:07.187Z,101760.88
2023-04-29T14:13:39.661Z,101766.47
2023-04-29T14:16:18.090Z,101763.22
2023-04-29T14:19:07.119Z,101763.22
2023-04-29T14:21:39.641Z,101773.59
2023-04-29T14:24:12.358Z,101770.81
2023-04-29T14:26:57.915Z,101773.59
2023-04-29T14:29:30.591Z,101777.22
2023-04-29T14:32:42.338Z,101772.84
2023-04-29T14:35:15.227Z,101777.97
2023-04-29T14:37:47.919Z,101780.78
2023-04-29T14:40:22.779Z,101781.56
2023-04-29T14:42:55.472Z,101776.72
2023-04-29T14:45:28.319Z,101790.41
2023-04-29T14:48:11.846Z,101789.63
2023-04-29T14:50:53.335Z,101782.50
2023-04-29T14:53:35.001Z,101781.25
2023-04-29T15:01:56.881Z,101780.16
2023-04-29T15:04:29.986Z,101774.56
2023-04-29T15:07:03.529Z,101788.09
2023-04-29T15:09:36.405Z,101784.19
2023-04-29T15:12:22.379Z,101792.13
2023-04-29T15:14:55.793Z,101790.59
2023-04-29T15:17:28.911Z,101792.13
2023-04-29T15:20:01.636Z,101800.06
2023-04-29T15:22:49.780Z,101790.09
2023-04-29T15:25:28.076Z,101792.13
2023-04-29T15:28:15.681Z,101786.53
2023-04-29T15:30:48.184Z,101785.75
2023-04-29T15:33:27.950Z,101796.19
2023-04-29T15:36:08.017Z,101801.78
2023-04-29T15:38:40.454Z,101792.13
2023-04-29T15:41:12.893Z,101796.94
2023-04-29T15:44:00.672Z,101790.09
2023-04-29T15:49:19.884Z,101789.00
2023-04-29T15:51:52.500Z,101787.47
2023-04-29T15:57:15.529Z,101795.88
2023-04-29T15:59:48.073Z,101797.09
2023-04-29T16:02:23.491Z,101795.53
2023-04-29T16:04:56.151Z,101798.34
2023-04-29T16:07:53.897Z,101805.19
2023-04-29T16:10:26.553Z,101795.53
2023-04-29T16:13:14.097Z,101803.94
2023-04-29T16:15:46.770Z,101803.94
2023-04-29T16:18:26.948Z,101800.81
2023-04-29T16:21:14.892Z,101805.66
2023-04-29T16:23:47.898Z,101806.88
2023-04-29T16:26:21.558Z,101806.13
2023-04-29T16:28:54.142Z,101804.53
2023-04-29T16:31:28.784Z,101808.59
2023-04-29T16:34:03.208Z,101801.41
2023-04-29T16:36:35.748Z,101808.28
2023-04-29T16:39:26.967Z,101811.06
2023-04-29T16:42:05.458Z,101804.72
2023-04-29T16:44:38.150Z,101805.47
2023-04-29T16:47:26.036Z,101809.53
2023-04-29T16:50:10.239Z,101809.53
2023-04-29T16:52:43.416Z,101804.38
2023-04-29T16:55:16.121Z,101797.22
2023-04-29T16:57:57.808Z,101806.41
2023-04-29T17:00:33.470Z,101804.06
2023-04-29T17:03:27.085Z,101803.28
2023-04-29T17:11:59.984Z,101802.97
2023-04-29T17:17:42.893Z,101806.69
2023-04-29T17:20:37.308Z,101809.16
2023-04-29T17:23:58.784Z,101808.41
2023-04-29T17:26:39.678Z,101811.66
2023-04-29T17:29:12.570Z,101806.06
2023-04-29T17:32:58.871Z,101803.72
2023-04-29T17:39:17.302Z,101808.56
2023-04-29T17:41:50.360Z,101802.16
2023-04-29T17:44:38.040Z,101805.44
2023-04-29T17:47:28.259Z,101815.84
2023-04-29T17:50:09.671Z,101813.50
2023-04-29T17:52:50.945Z,101812.72
2023-04-29T17:55:23.509Z,101816.31
2023-04-29T17:57:56.616Z,101817.53
2023-04-29T18:00:57.925Z,101814.75
2023-04-29T18:03:30.736Z,101816.00
2023-04-29T18:06:18.200Z,101814.41
2023-04-29T18:08:50.836Z,101821.28
2023-04-29T18:11:23.434Z,101824.06
2023-04-29T18:14:05.052Z,101823.31
2023-04-29T18:16:38.597Z,101820.19
2023-04-29T18:19:40.481Z,101818.16
2023-04-29T18:22:53.485Z,101827.00
2023-04-29T18:25:26.430Z,101825.47
2023-04-29T18:28:25.235Z,101825.47
2023-04-29T18:31:10.386Z,101827.44
2023-04-29T18:36:39.136Z,101830.72
2023-04-29T18:39:30.994Z,101836.31
2023-04-29T18:42:42.126Z,101831.97
2023-04-29T18:45:14.844Z,101836.78
2023-04-29T18:51:46.488Z,101833.97
2023-04-29T19:03:27.345Z,101847.31
2023-04-29T19:06:15.206Z,101838.94
2023-04-29T19:12:05.207Z,101851.06
2023-04-29T19:14:38.536Z,101856.66
2023-04-29T19:17:29.790Z,101855.06
2023-04-29T19:20:02.673Z,101859.91
2023-04-29T19:22:35.409Z,101869.53
2023-04-29T19:25:33.157Z,101870.00
2023-04-29T19:28:06.148Z,101873.25
2023-04-29T19:30:49.631Z,101882.41
2023-04-29T19:33:53.047Z,101862.13
2023-04-29T19:36:44.328Z,101886.47
2023-04-29T19:57:43.740Z,101905.19
2023-04-29T20:07:09.257Z,101915.75
2023-04-29T20:10:12.357Z,101917.75
2023-04-29T20:12:50.682Z,101921.78
2023-04-29T20:22:36.896Z,101935.09
2023-04-29T20:25:09.553Z,101927.16
2023-04-29T20:27:42.099Z,101931.97
2023-04-29T20:31:04.998Z,101930.44
2023-04-29T20:33:37.665Z,101938.00
2023-04-29T20:39:27.744Z,101940.19
2023-04-29T20:44:52.372Z,101943.41
2023-04-29T20:47:24.953Z,101947.13
2023-04-29T20:50:16.537Z,101952.25
2023-04-29T20:55:38.467Z,101954.72
2023-04-29T20:58:11.169Z,101952.38
2023-04-29T21:01:04.182Z,101963.56
2023-04-29T21:03:36.727Z,101956.41
2023-04-29T21:06:27.892Z,101961.25
2023-04-29T21:09:02.458Z,101966.06
2023-04-29T21:12:11.195Z,101960.47
2023-04-29T21:14:48.918Z,101970.84
2023-04-29T21:18:36.750Z,101975.66
2023-04-29T21:21:10.407Z,101968.53
2023-04-29T21:24:07.454Z,101974.56
2023-04-29T21:38:01.750Z,101979.81
2023-04-29T21:40:34.563Z,101983.06
2023-04-29T21:43:36.868Z,101980.84
2023-04-29T21:46:23.307Z,101982.72
2023-04-29T21:49:20.117Z,101989.56
2023-04-29T21:51:52.938Z,101981.63
2023-04-29T21:54:35.505Z,101988.00
2023-04-29T21:58:09.772Z,101993.25
2023-04-29T22:01:30.108Z,101990.44
2023-04-29T22:08:24.570Z,101996.97
2023-04-29T22:12:14.870Z,102005.34
2023-04-29T22:22:07.533Z,102000.66
2023-04-29T22:24:55.468Z,102006.69
2023-04-29T22:27:48.488Z,102011.53
2023-04-29T22:30:21.073Z,102009.94
2023-04-29T22:33:08.372Z,102011.19
2023-04-29T22:35:40.956Z,102008.38
2023-04-29T22:38:39.643Z,102011.97
2023-04-29T22:41:41.103Z,102011.63
2023-04-29T22:44:37.776Z,102014.84
2023-04-29T22:47:21.996Z,102018.47
2023-04-29T22:50:19.464Z,102017.66
2023-04-29T22:59:17.067Z,102021.38
2023-04-29T23:06:01.408Z,102007.81
2023-04-29T23:19:23.288Z,102026.28
2023-04-29T23:46:01.043Z,102043.28
2023-04-29T23:52:44.504Z,102041.72
2023-04-29T23:55:33.732Z,102056.16
2023-04-29T23:58:32.866Z,102055.34
